createdAt,value
2019-05-14T00:02:02.843Z,91.70
2019-05-14T00:04:32.194Z,91.70
2019-05-14T00:07:01.557Z,91.70
2019-05-14T00:09:32.172Z,91.80
2019-05-14T00:12:02.833Z,91.80
2019-05-14T00:14:39.712Z,91.80
2019-05-14T00:17:03.553Z,91.80
2019-05-14T00:19:32.995Z,91.90
2019-05-14T00:22:02.420Z,92.20
2019-05-14T00:24:32.361Z,91.80
2019-05-14T00:27:02.297Z,91.70
2019-05-14T00:29:32.170Z,91.70
2019-05-14T00:32:02.053Z,91.70
2019-05-14T00:34:31.730Z,91.60
2019-05-14T00:37:01.670Z,91.50
2019-05-14T00:39:32.036Z,91.90
2019-05-14T00:42:01.944Z,91.50
2019-05-14T00:44:32.326Z,91.50
2019-05-14T00:47:02.388Z,91.40
2019-05-14T00:49:31.875Z,91.40
2019-05-14T00:52:02.267Z,91.30
2019-05-14T00:54:32.314Z,91.10
2019-05-14T00:57:01.888Z,91.20
2019-05-14T00:59:32.216Z,91.10
2019-05-14T01:02:03.043Z,91.10
2019-05-14T01:04:32.887Z,91.00
2019-05-14T01:07:02.384Z,90.80
2019-05-14T01:09:31.819Z,90.80
2019-05-14T01:12:01.789Z,90.80
2019-05-14T01:14:31.895Z,91.20
2019-05-14T01:17:01.979Z,91.00
2019-05-14T01:19:31.890Z,91.10
2019-05-14T01:22:01.833Z,91.20
2019-05-14T01:24:32.210Z,91.40
2019-05-14T01:27:01.911Z,91.50
2019-05-14T01:29:31.771Z,91.50
2019-05-14T01:32:01.659Z,91.60
2019-05-14T01:34:32.372Z,91.80
2019-05-14T01:37:02.690Z,92.00
2019-05-14T01:39:32.363Z,92.10
2019-05-14T01:42:02.491Z,92.10
2019-05-14T01:44:32.722Z,92.20
2019-05-14T01:47:02.131Z,92.20
2019-05-14T01:49:31.918Z,92.20
2019-05-14T01:52:01.866Z,92.30
2019-05-14T01:54:31.785Z,92.60
2019-05-14T01:57:02.161Z,92.30
2019-05-14T01:59:32.381Z,92.20
2019-05-14T02:02:02.468Z,92.30
2019-05-14T02:04:32.004Z,92.30
2019-05-14T02:07:02.215Z,92.30
2019-05-14T02:09:32.255Z,92.30
2019-05-14T02:12:02.312Z,92.30
2019-05-14T02:14:32.094Z,92.30
2019-05-14T02:17:02.027Z,92.20
2019-05-14T02:19:31.961Z,92.20
2019-05-14T02:22:02.059Z,92.20
2019-05-14T02:24:32.206Z,92.10
2019-05-14T02:27:01.986Z,92.10
2019-05-14T02:29:32.212Z,92.00
2019-05-14T02:32:02.107Z,91.90
2019-05-14T02:34:31.458Z,91.80
2019-05-14T02:37:00.853Z,91.70
2019-05-14T02:39:30.338Z,91.70
2019-05-14T02:41:59.747Z,91.70
2019-05-14T02:44:29.924Z,91.80
2019-05-14T02:46:59.688Z,91.80
2019-05-14T02:49:30.054Z,91.80
2019-05-14T02:51:59.782Z,91.60
2019-05-14T02:54:29.917Z,91.50
2019-05-14T02:57:00.079Z,91.50
2019-05-14T02:59:30.465Z,91.50
2019-05-14T03:02:00.382Z,91.40
2019-05-14T03:04:30.185Z,91.40
2019-05-14T03:07:00.615Z,91.40
2019-05-14T03:09:30.148Z,91.40
2019-05-14T03:11:59.832Z,91.40
2019-05-14T03:14:30.263Z,91.40
2019-05-14T03:17:00.242Z,91.30
2019-05-14T03:19:30.031Z,91.30
2019-05-14T03:22:00.392Z,91.20
2019-05-14T03:24:30.316Z,91.10
2019-05-14T03:26:59.802Z,91.00
2019-05-14T03:29:30.895Z,91.00
2019-05-14T03:32:03.056Z,90.90
2019-05-14T03:34:33.442Z,90.70
2019-05-14T03:37:03.884Z,90.60
2019-05-14T03:39:33.685Z,90.50
2019-05-14T03:42:03.408Z,90.50
2019-05-14T03:44:32.864Z,90.50
2019-05-14T03:47:05.270Z,90.50
2019-05-14T03:49:33.405Z,90.50
2019-05-14T03:52:02.831Z,90.50
2019-05-14T03:54:32.297Z,90.60
2019-05-14T03:57:01.716Z,90.50
2019-05-14T03:59:31.100Z,90.60
2019-05-14T04:02:01.154Z,90.60
2019-05-14T04:04:30.996Z,90.50
2019-05-14T04:07:02.296Z,90.40
2019-05-14T04:09:34.371Z,90.30
2019-05-14T04:12:04.787Z,90.20
2019-05-14T04:14:39.658Z,90.30
2019-05-14T04:17:15.183Z,90.30
2019-05-14T04:19:43.416Z,90.20
2019-05-14T04:22:14.665Z,90.20
2019-05-14T04:24:45.653Z,90.10
2019-05-14T04:27:16.214Z,90.10
2019-05-14T04:29:49.832Z,90.10
2019-05-14T04:32:21.037Z,90.00
2019-05-14T04:34:51.184Z,90.00
2019-05-14T04:37:20.670Z,90.00
2019-05-14T04:39:50.687Z,89.90
2019-05-14T04:42:20.678Z,89.70
2019-05-14T04:44:50.872Z,89.80
2019-05-14T04:47:31.189Z,89.50
2019-05-14T04:49:51.506Z,89.40
2019-05-14T04:52:20.934Z,89.20
2019-05-14T04:54:50.444Z,89.10
2019-05-14T04:57:22.861Z,88.90
2019-05-14T04:59:50.876Z,89.00
2019-05-14T05:02:20.344Z,88.90
2019-05-14T05:04:50.948Z,89.00
2019-05-14T05:07:20.672Z,87.50
2019-05-14T05:09:50.554Z,85.50
2019-05-14T05:12:20.192Z,84.60
2019-05-14T05:14:49.679Z,83.80
2019-05-14T05:17:19.715Z,83.40
2019-05-14T05:19:51.733Z,83.80
2019-05-14T05:22:20.389Z,83.60
2019-05-14T05:24:49.785Z,82.50
2019-05-14T05:27:19.212Z,81.80
2019-05-14T05:29:48.795Z,82.30
2019-05-14T05:32:19.504Z,82.60
2019-05-14T05:34:49.030Z,81.20
2019-05-14T05:37:19.111Z,79.30
2019-05-14T05:39:49.217Z,78.20
2019-05-14T05:42:19.073Z,76.70
2019-05-14T05:44:48.697Z,76.20
2019-05-14T05:47:18.499Z,75.80
2019-05-14T05:49:48.856Z,75.30
2019-05-14T05:52:19.142Z,74.50
2019-05-14T05:54:49.147Z,73.90
2019-05-14T05:57:18.981Z,73.00
2019-05-14T05:59:48.762Z,72.60
2019-05-14T06:02:18.842Z,73.00
2019-05-14T06:04:50.553Z,72.20
2019-05-14T06:07:19.941Z,71.60
2019-05-14T06:09:49.428Z,71.40
2019-05-14T06:12:19.151Z,71.00
2019-05-14T06:14:48.943Z,71.50
2019-05-14T06:17:19.212Z,70.70
2019-05-14T06:19:48.866Z,68.50
2019-05-14T06:22:18.894Z,68.70
2019-05-14T06:24:48.832Z,69.80
2019-05-14T06:27:18.519Z,70.20
2019-05-14T06:29:49.012Z,69.70
2019-05-14T06:32:18.955Z,68.30
2019-05-14T06:34:49.116Z,70.00
2019-05-14T06:37:19.409Z,70.60
2019-05-14T06:39:49.016Z,72.70
2019-05-14T06:42:19.338Z,74.50
2019-05-14T06:44:49.472Z,76.10
2019-05-14T06:47:19.291Z,76.20
2019-05-14T06:49:49.034Z,77.50
2019-05-14T06:52:18.918Z,76.90
2019-05-14T06:54:49.605Z,76.70
2019-05-14T06:57:19.431Z,77.30
2019-05-14T06:59:48.905Z,76.60
2019-05-14T07:02:19.347Z,77.40
2019-05-14T07:04:49.089Z,79.00
2019-05-14T07:07:20.609Z,78.90
2019-05-14T07:09:49.590Z,78.10
2019-05-14T07:12:19.333Z,79.40
2019-05-14T07:14:49.024Z,78.40
2019-05-14T07:17:18.498Z,79.40
2019-05-14T07:19:49.078Z,80.50
2019-05-14T07:22:19.533Z,80.90
2019-05-14T07:24:49.940Z,81.70
2019-05-14T07:27:19.547Z,82.30
2019-05-14T07:29:49.341Z,84.40
2019-05-14T07:32:19.370Z,83.80
2019-05-14T07:34:49.009Z,83.50
2019-05-14T07:37:18.472Z,82.60
2019-05-14T07:39:48.656Z,81.00
2019-05-14T07:42:18.514Z,80.10
2019-05-14T07:44:48.541Z,79.80
2019-05-14T07:47:18.836Z,79.80
2019-05-14T07:49:49.064Z,78.80
2019-05-14T07:52:19.720Z,80.40
2019-05-14T07:54:49.446Z,78.60
2019-05-14T07:57:19.234Z,79.10
2019-05-14T07:59:48.799Z,76.00
2019-05-14T08:02:19.599Z,76.40
2019-05-14T08:04:49.178Z,78.90
2019-05-14T08:07:21.928Z,78.80
2019-05-14T08:09:51.273Z,76.20
2019-05-14T08:12:20.703Z,75.10
2019-05-14T08:15:14.375Z,75.60
2019-05-14T08:17:21.209Z,75.00
2019-05-14T08:19:50.626Z,73.30
2019-05-14T08:22:20.086Z,73.90
2019-05-14T08:24:49.544Z,73.60
2019-05-14T08:27:19.330Z,74.00
2019-05-14T08:29:49.024Z,72.20
2019-05-14T08:32:19.061Z,70.60
2019-05-14T08:34:48.773Z,69.70
2019-05-14T08:37:19.117Z,71.20
2019-05-14T08:39:48.953Z,70.80
2019-05-14T08:42:18.760Z,70.20
2019-05-14T08:44:51.187Z,72.80
2019-05-14T08:47:19.546Z,72.80
2019-05-14T08:49:50.835Z,72.60
2019-05-14T08:52:20.136Z,70.20
2019-05-14T08:55:05.360Z,69.10
2019-05-14T08:57:20.798Z,67.20
2019-05-14T08:59:50.235Z,69.40
2019-05-14T09:02:20.362Z,70.80
2019-05-14T09:04:53.627Z,68.80
2019-05-14T09:07:20.884Z,68.50
2019-05-14T09:09:50.369Z,71.10
2019-05-14T09:12:19.758Z,66.70
2019-05-14T09:14:49.211Z,68.20
2019-05-14T09:17:18.702Z,67.70
2019-05-14T09:20:01.964Z,69.80
2019-05-14T09:22:19.252Z,67.20
2019-05-14T09:24:49.245Z,67.70
2019-05-14T09:27:19.388Z,67.50
2019-05-14T09:29:49.024Z,67.10
2019-05-14T09:32:19.315Z,64.80
2019-05-14T09:34:48.932Z,63.30
2019-05-14T09:37:19.263Z,62.20
2019-05-14T09:39:48.990Z,63.50
2019-05-14T09:42:19.584Z,63.50
2019-05-14T09:44:49.468Z,61.80
2019-05-14T09:47:19.144Z,60.90
2019-05-14T09:49:49.220Z,60.80
2019-05-14T09:52:18.917Z,61.40
2019-05-14T09:54:49.572Z,59.50
2019-05-14T09:57:19.346Z,59.00
2019-05-14T09:59:48.727Z,59.90
2019-05-14T10:02:18.141Z,58.40
2019-05-14T10:04:49.091Z,57.60
2019-05-14T10:07:18.666Z,57.70
2019-05-14T10:09:49.242Z,58.80
2019-05-14T10:12:18.782Z,60.40
2019-05-14T10:14:48.776Z,59.50
2019-05-14T10:17:19.335Z,61.40
2019-05-14T10:19:50.028Z,61.00
2019-05-14T10:22:20.036Z,61.60
2019-05-14T10:24:49.553Z,63.60
2019-05-14T10:27:19.117Z,61.80
2019-05-14T10:29:48.567Z,64.10
2019-05-14T10:32:18.652Z,63.70
2019-05-14T10:34:48.676Z,63.30
2019-05-14T10:37:19.126Z,63.40
2019-05-14T10:39:48.940Z,63.80
2019-05-14T10:42:20.062Z,64.10
2019-05-14T10:44:49.452Z,66.60
2019-05-14T10:47:18.962Z,67.80
2019-05-14T10:49:48.355Z,63.30
2019-05-14T10:52:19.667Z,63.50
2019-05-14T10:54:55.694Z,65.50
2019-05-14T10:57:19.917Z,65.50
2019-05-14T10:59:49.250Z,66.60
2019-05-14T11:02:18.763Z,66.00
2019-05-14T11:04:48.408Z,64.80
2019-05-14T11:07:18.534Z,64.90
2019-05-14T11:09:48.726Z,66.80
2019-05-14T11:12:19.217Z,66.30
2019-05-14T11:14:49.480Z,64.10
2019-05-14T11:17:19.696Z,65.90
2019-05-14T11:19:49.585Z,63.40
2019-05-14T11:22:19.076Z,62.30
2019-05-14T11:24:49.168Z,63.90
2019-05-14T11:27:19.039Z,64.80
2019-05-14T11:29:49.130Z,63.60
2019-05-14T11:32:18.750Z,66.40
2019-05-14T11:34:48.105Z,62.50
2019-05-14T11:37:18.714Z,60.90
2019-05-14T11:39:48.809Z,64.30
2019-05-14T11:42:19.889Z,65.50
2019-05-14T11:44:49.673Z,64.40
2019-05-14T11:47:19.055Z,63.10
2019-05-14T11:49:49.249Z,59.90
2019-05-14T11:52:19.044Z,61.30
2019-05-14T11:54:49.418Z,59.90
2019-05-14T11:57:19.447Z,59.20
2019-05-14T11:59:49.207Z,59.70
2019-05-14T12:02:19.019Z,59.90
2019-05-14T12:04:48.660Z,62.20
2019-05-14T12:07:18.625Z,60.40
2019-05-14T12:09:48.449Z,64.00
2019-05-14T12:12:19.047Z,64.00
2019-05-14T12:14:48.929Z,62.60
2019-05-14T12:17:18.366Z,62.30
2019-05-14T12:19:48.511Z,59.90
2019-05-14T12:22:19.092Z,59.40
2019-05-14T12:24:49.438Z,59.50
2019-05-14T12:27:19.313Z,60.70
2019-05-14T12:29:50.083Z,57.10
2019-05-14T12:32:19.807Z,59.10
2019-05-14T12:34:49.275Z,59.20
2019-05-14T12:37:18.867Z,60.00
2019-05-14T12:39:48.420Z,60.00
2019-05-14T12:42:19.292Z,57.50
2019-05-14T12:44:49.111Z,59.10
2019-05-14T12:47:18.953Z,60.00
2019-05-14T12:49:48.630Z,60.10
2019-05-14T12:52:25.517Z,60.70
2019-05-14T12:54:50.098Z,62.00
2019-05-14T12:57:19.885Z,60.80
2019-05-14T12:59:49.344Z,58.40
2019-05-14T13:02:19.013Z,58.00
2019-05-14T13:04:48.780Z,58.20
2019-05-14T13:07:19.276Z,60.60
2019-05-14T13:09:49.117Z,60.00
2019-05-14T13:12:19.075Z,61.40
2019-05-14T13:14:49.053Z,61.80
2019-05-14T13:17:18.886Z,63.10
2019-05-14T13:19:48.865Z,63.90
2019-05-14T13:22:30.292Z,64.00
2019-05-14T13:24:49.624Z,58.40
2019-05-14T13:27:19.253Z,57.30
2019-05-14T13:29:49.036Z,59.60
2019-05-14T13:32:19.543Z,59.00
2019-05-14T13:34:49.255Z,60.50
2019-05-14T13:37:18.661Z,59.70
2019-05-14T13:39:53.100Z,61.00
2019-05-14T13:42:22.205Z,60.50
2019-05-14T13:44:51.551Z,59.10
2019-05-14T13:47:21.753Z,62.80
2019-05-14T13:49:51.204Z,60.40
2019-05-14T13:52:20.636Z,61.70
2019-05-14T13:54:50.106Z,63.20
2019-05-14T13:57:19.682Z,62.90
2019-05-14T13:59:49.440Z,63.30
2019-05-14T14:02:19.209Z,63.90
2019-05-14T14:04:48.628Z,63.30
2019-05-14T14:07:18.998Z,64.50
2019-05-14T14:09:49.816Z,65.50
2019-05-14T14:12:19.574Z,65.60
2019-05-14T14:14:49.488Z,62.60
2019-05-14T14:17:19.093Z,62.50
2019-05-14T14:19:48.454Z,63.70
2019-05-14T14:22:19.472Z,63.60
2019-05-14T14:24:48.980Z,62.70
2019-05-14T14:27:19.616Z,61.90
2019-05-14T14:29:49.594Z,65.20
2019-05-14T14:32:19.172Z,64.10
2019-05-14T14:34:48.760Z,64.00
2019-05-14T14:37:19.173Z,64.40
2019-05-14T14:39:49.145Z,62.40
2019-05-14T14:42:19.575Z,63.20
2019-05-14T14:44:49.318Z,62.30
2019-05-14T14:47:19.165Z,63.50
2019-05-14T14:49:51.983Z,63.90
2019-05-14T14:52:20.226Z,61.70
2019-05-14T14:54:49.832Z,63.50
2019-05-14T14:57:20.146Z,63.50
2019-05-14T14:59:49.649Z,62.70
2019-05-14T15:02:19.884Z,61.60
2019-05-14T15:04:50.102Z,61.80
2019-05-14T15:07:19.722Z,65.30
2019-05-14T15:09:49.180Z,63.70
2019-05-14T15:12:20.002Z,64.30
2019-05-14T15:14:49.759Z,63.70
2019-05-14T15:17:19.219Z,62.20
2019-05-14T15:19:49.933Z,62.70
2019-05-14T15:22:21.003Z,63.60
2019-05-14T15:24:50.650Z,64.50
2019-05-14T15:27:20.096Z,64.20
2019-05-14T15:29:49.451Z,65.10
2019-05-14T15:32:19.627Z,66.90
2019-05-14T15:34:50.641Z,67.10
2019-05-14T15:37:20.295Z,63.50
2019-05-14T15:39:49.711Z,64.90
2019-05-14T15:42:19.408Z,66.20
2019-05-14T15:44:55.729Z,65.40
2019-05-14T15:47:20.198Z,66.40
2019-05-14T15:49:49.643Z,67.30
2019-05-14T15:52:19.511Z,65.20
2019-05-14T15:54:50.676Z,64.70
2019-05-14T15:57:20.218Z,65.00
2019-05-14T15:59:49.695Z,66.10
2019-05-14T16:02:20.189Z,67.70
2019-05-14T16:04:49.927Z,65.80
2019-05-14T16:07:19.415Z,64.90
2019-05-14T16:09:49.543Z,66.90
2019-05-14T16:12:19.814Z,66.80
2019-05-14T16:14:49.844Z,66.20
2019-05-14T16:17:24.580Z,66.50
2019-05-14T16:19:50.525Z,67.90
2019-05-14T16:22:20.021Z,69.10
2019-05-14T16:24:56.296Z,70.00
2019-05-14T16:27:20.584Z,69.80
2019-05-14T16:29:51.482Z,70.90
2019-05-14T16:32:20.919Z,70.50
2019-05-14T16:34:50.341Z,70.40
2019-05-14T16:37:19.732Z,72.40
2019-05-14T16:39:49.152Z,70.20
2019-05-14T16:42:20.605Z,71.20
2019-05-14T16:44:49.611Z,70.60
2019-05-14T16:47:19.047Z,71.20
2019-05-14T16:49:48.460Z,72.00
2019-05-14T16:52:18.173Z,70.30
2019-05-14T16:54:49.163Z,67.00
2019-05-14T16:57:18.725Z,66.60
2019-05-14T16:59:49.636Z,65.90
2019-05-14T17:02:19.509Z,67.30
2019-05-14T17:04:48.927Z,69.40
2019-05-14T17:07:18.440Z,71.20
2019-05-14T17:09:49.404Z,72.00
2019-05-14T17:12:22.474Z,72.10
2019-05-14T17:14:51.798Z,73.10
2019-05-14T17:17:21.268Z,73.10
2019-05-14T17:19:50.671Z,72.30
2019-05-14T17:22:28.694Z,73.50
2019-05-14T17:24:51.210Z,73.00
2019-05-14T17:27:20.620Z,71.80
2019-05-14T17:29:49.971Z,71.90
2019-05-14T17:32:19.436Z,73.10
2019-05-14T17:34:49.138Z,72.70
2019-05-14T17:37:19.106Z,72.80
2019-05-14T17:39:49.099Z,73.50
2019-05-14T17:42:19.283Z,74.70
2019-05-14T17:44:48.957Z,76.40
2019-05-14T17:47:18.573Z,76.30
2019-05-14T17:49:48.574Z,76.40
2019-05-14T17:52:21.923Z,76.50
2019-05-14T17:54:49.490Z,76.70
2019-05-14T17:57:24.648Z,77.30
2019-05-14T17:59:49.903Z,77.50
2019-05-14T18:02:19.328Z,77.90
2019-05-14T18:04:48.878Z,77.90
2019-05-14T18:07:19.159Z,78.50
2019-05-14T18:09:49.031Z,78.80
2019-05-14T18:12:19.257Z,78.30
2019-05-14T18:14:49.153Z,76.60
2019-05-14T18:17:18.961Z,76.00
2019-05-14T18:19:48.693Z,76.60
2019-05-14T18:22:19.345Z,75.80
2019-05-14T18:24:49.073Z,76.20
2019-05-14T18:27:19.501Z,75.90
2019-05-14T18:29:49.291Z,76.40
2019-05-14T18:32:19.095Z,76.70
2019-05-14T18:34:48.849Z,77.10
2019-05-14T18:37:18.333Z,78.00
2019-05-14T18:39:48.469Z,78.30
2019-05-14T18:42:19.037Z,79.60
2019-05-14T18:44:49.855Z,80.10
2019-05-14T18:47:20.012Z,80.50
2019-05-14T18:49:49.794Z,80.40
2019-05-14T18:52:19.249Z,81.20
2019-05-14T18:54:48.682Z,81.00
2019-05-14T18:57:18.316Z,81.70
2019-05-14T18:59:49.291Z,82.40
2019-05-14T19:02:18.790Z,82.90
2019-05-14T19:04:48.509Z,83.60
2019-05-14T19:07:18.844Z,83.80
2019-05-14T19:09:49.583Z,84.40
2019-05-14T19:12:19.193Z,85.20
2019-05-14T19:14:49.282Z,85.20
2019-05-14T19:17:19.144Z,85.20
2019-05-14T19:19:48.559Z,85.60
2019-05-14T19:22:17.922Z,86.40
2019-05-14T19:24:49.218Z,86.70
2019-05-14T19:27:18.795Z,86.80
2019-05-14T19:29:48.547Z,86.80
2019-05-14T19:32:19.119Z,87.30
2019-05-14T19:34:48.895Z,87.80
2019-05-14T19:37:19.041Z,87.80
2019-05-14T19:39:48.711Z,87.50
2019-05-14T19:42:18.372Z,86.70
2019-05-14T19:44:48.323Z,86.50
2019-05-14T19:47:18.668Z,86.20
2019-05-14T19:49:49.245Z,85.60
2019-05-14T19:52:18.866Z,85.00
2019-05-14T19:54:48.922Z,83.80
2019-05-14T19:57:18.711Z,83.30
2019-05-14T19:59:49.114Z,82.90
2019-05-14T20:02:18.811Z,82.10
2019-05-14T20:04:48.216Z,81.10
2019-05-14T20:07:18.095Z,78.80
2019-05-14T20:09:48.271Z,78.30
2019-05-14T20:12:18.356Z,79.90
2019-05-14T20:14:49.020Z,81.00
2019-05-14T20:17:19.513Z,81.80
2019-05-14T20:19:49.506Z,82.70
2019-05-14T20:22:19.189Z,83.20
2019-05-14T20:24:48.683Z,83.30
2019-05-14T20:27:18.121Z,82.70
2019-05-14T20:29:48.650Z,83.20
2019-05-14T20:32:19.370Z,84.00
2019-05-14T20:34:49.288Z,84.60
2019-05-14T20:37:19.012Z,85.20
2019-05-14T20:39:48.540Z,85.20
2019-05-14T20:42:18.547Z,84.50
2019-05-14T20:44:49.192Z,84.70
2019-05-14T20:47:19.060Z,84.70
2019-05-14T20:49:48.788Z,85.30
2019-05-14T20:52:19.387Z,85.20
2019-05-14T20:54:49.122Z,85.60
2019-05-14T20:57:26.395Z,85.60
2019-05-14T20:59:49.570Z,86.30
2019-05-14T21:02:18.936Z,86.70
2019-05-14T21:04:54.483Z,86.80
2019-05-14T21:07:19.976Z,86.60
2019-05-14T21:09:49.430Z,87.00
2019-05-14T21:12:19.014Z,87.30
2019-05-14T21:14:49.275Z,87.50
2019-05-14T21:17:19.306Z,88.40
2019-05-14T21:19:49.307Z,87.80
2019-05-14T21:22:19.196Z,88.30
2019-05-14T21:24:52.620Z,88.60
2019-05-14T21:27:19.815Z,89.10
2019-05-14T21:29:49.324Z,89.20
2019-05-14T21:32:19.750Z,89.50
2019-05-14T21:34:49.407Z,89.90
2019-05-14T21:37:19.038Z,90.00
2019-05-14T21:39:49.072Z,90.00
2019-05-14T21:42:19.522Z,90.20
2019-05-14T21:44:51.574Z,90.40
2019-05-14T21:47:20.382Z,90.60
2019-05-14T21:49:49.845Z,90.80
2019-05-14T21:52:19.203Z,91.00
2019-05-14T21:54:48.584Z,91.30
2019-05-14T21:57:19.008Z,91.40
2019-05-14T21:59:48.841Z,91.60
2019-05-14T22:02:26.951Z,91.70
2019-05-14T22:04:50.438Z,91.80
2019-05-14T22:07:19.858Z,91.90
2019-05-14T22:09:49.257Z,92.00
2019-05-14T22:12:20.609Z,92.10
2019-05-14T22:14:49.746Z,92.30
2019-05-14T22:17:19.093Z,92.50
2019-05-14T22:19:49.076Z,92.70
2019-05-14T22:22:18.769Z,92.90
2019-05-14T22:24:48.884Z,93.00
2019-05-14T22:27:18.560Z,93.10
2019-05-14T22:29:47.957Z,93.20
2019-05-14T22:32:19.096Z,93.20
2019-05-14T22:34:49.067Z,93.10
2019-05-14T22:37:20.184Z,93.10
2019-05-14T22:39:49.846Z,92.90
2019-05-14T22:42:19.284Z,92.70
2019-05-14T22:44:50.463Z,92.80
2019-05-14T22:47:19.737Z,92.80
2019-05-14T22:49:49.075Z,92.80
2019-05-14T22:52:18.971Z,92.60
2019-05-14T22:54:49.127Z,92.80
2019-05-14T22:57:18.683Z,92.40
2019-05-14T22:59:48.635Z,92.20
2019-05-14T23:02:19.394Z,92.10
2019-05-14T23:04:49.331Z,92.00
2019-05-14T23:07:19.095Z,91.80
2019-05-14T23:09:49.132Z,91.80
2019-05-14T23:12:18.486Z,91.70
2019-05-14T23:14:48.688Z,91.70
2019-05-14T23:17:19.708Z,92.10
2019-05-14T23:19:49.498Z,91.60
2019-05-14T23:22:18.936Z,91.70
2019-05-14T23:24:48.379Z,91.60
2019-05-14T23:27:18.851Z,91.50
2019-05-14T23:29:48.427Z,91.50
2019-05-14T23:32:19.146Z,91.50
2019-05-14T23:34:48.956Z,91.30
2019-05-14T23:37:19.480Z,91.30
2019-05-14T23:39:49.184Z,91.30
2019-05-14T23:42:18.779Z,91.30
2019-05-14T23:44:49.219Z,91.30
2019-05-14T23:47:19.478Z,91.30
2019-05-14T23:49:48.917Z,91.30
2019-05-14T23:52:19.408Z,91.50
2019-05-14T23:54:49.109Z,91.80
2019-05-14T23:57:18.520Z,92.00
2019-05-14T23:59:48.345Z,92.40
